Time,TemperatureF,DewpointF,PressureIn,WindDirection,WindDirectionDegrees,WindSpeedMPH,WindSpeedGustMPH,Humidity,HourlyPrecipIn,Conditions,Clouds,dailyrainin,SoftwareType,DateUTC
2013-09-08 00:03:00,58.1,56.7,29.97,North,-999,0.0,0.0,95,0.00,,,-99.99,FreeWX-Wi 1.01,2013-09-08 07:03:00,
2013-09-08 00:08:00,58.1,56.7,29.97,North,-999,0.0,0.0,95,0.00,,,-99.99,FreeWX-Wi 1.01,2013-09-08 07:08:00,
2013-09-08 00:13:00,57.9,56.5,29.97,North,-999,0.0,0.0,95,0.00,,,-99.99,FreeWX-Wi 1.01,2013-09-08 07:13:00,
2013-09-08 00:18:00,57.9,56.5,29.97,North,-999,0.0,0.0,95,0.00,,,-99.99,FreeWX-Wi 1.01,2013-09-08 07:18:00,
2013-09-08 00:23:00,57.9,56.8,29.97,North,-999,0.0,0.0,96,0.00,,,-99.99,FreeWX-Wi 1.01,2013-09-08 07:23:00,
2013-09-08 00:28:00,57.9,56.8,29.97,North,-999,0.0,0.0,96,0.00,,,-99.99,FreeWX-Wi 1.01,2013-09-08 07:28:00,
2013-09-08 00:33:00,57.9,56.8,29.97,North,-999,0.0,0.0,96,0.00,,,-99.99,FreeWX-Wi 1.01,2013-09-08 07:33:00,
2013-09-08 00:38:00,57.7,56.7,29.97,North,-999,0.0,0.0,96,0.00,,,-99.99,FreeWX-Wi 1.01,2013-09-08 07:38:00,
2013-09-08 00:43:00,57.6,56.5,29.97,North,-999,0.0,0.0,96,0.00,,,-99.99,FreeWX-Wi 1.01,2013-09-08 07:43:00,
2013-09-08 00:48:00,57.7,56.8,29.97,North,-999,0.0,0.0,97,0.00,,,-99.99,FreeWX-Wi 1.01,2013-09-08 07:48:00,
2013-09-08 00:53:00,57.7,56.8,29.97,North,-999,0.0,0.0,97,0.00,,,-99.99,FreeWX-Wi 1.01,2013-09-08 07:53:00,
2013-09-08 00:58:00,57.7,56.8,29.97,North,-999,0.0,0.0,97,0.00,,,-99.99,FreeWX-Wi 1.01,2013-09-08 07:58:00,
2013-09-08 01:03:00,57.9,57.0,29.97,North,-999,0.0,0.0,97,0.00,,,-99.99,FreeWX-Wi 1.01,2013-09-08 08:03:00,
2013-09-08 01:08:00,57.9,57.0,29.97,North,-999,0.0,0.0,97,0.00,,,-99.99,FreeWX-Wi 1.01,2013-09-08 08:08:00,
2013-09-08 01:13:00,57.9,57.4,29.97,North,-999,0.0,0.0,98,0.00,,,-99.99,FreeWX-Wi 1.01,2013-09-08 08:13:00,
2013-09-08 01:18:00,57.7,56.8,29.97,North,-999,0.0,0.0,97,0.00,,,-99.99,FreeWX-Wi 1.01,2013-09-08 08:18:00,
2013-09-08 01:23:00,57.6,56.7,29.97,North,-999,0.0,0.0,97,0.00,,,-99.99,FreeWX-Wi 1.01,2013-09-08 08:23:00,
2013-09-08 01:28:00,57.6,57.0,29.97,North,-999,0.0,0.0,98,0.00,,,-99.99,FreeWX-Wi 1.01,2013-09-08 08:28:00,
2013-09-08 01:34:00,57.6,57.0,29.97,North,-999,0.0,0.0,98,0.00,,,-99.99,FreeWX-Wi 1.01,2013-09-08 08:34:00,
2013-09-08 01:39:00,57.6,57.0,29.97,North,-999,0.0,0.0,98,0.00,,,-99.99,FreeWX-Wi 1.01,2013-09-08 08:39:00,
2013-09-08 01:44:00,57.6,57.0,29.97,North,-999,0.0,0.0,98,0.00,,,-99.99,FreeWX-Wi 1.01,2013-09-08 08:44:00,
2013-09-08 01:49:00,57.6,57.0,29.97,North,-999,0.0,0.0,98,0.00,,,-99.99,FreeWX-Wi 1.01,2013-09-08 08:49:00,
2013-09-08 01:54:00,57.6,57.0,29.97,North,-999,0.0,0.0,98,0.00,,,-99.99,FreeWX-Wi 1.01,2013-09-08 08:54:00,
2013-09-08 01:59:00,57.2,56.7,29.97,North,-999,0.0,0.0,98,0.00,,,-99.99,FreeWX-Wi 1.01,2013-09-08 08:59:00,
2013-09-08 02:04:00,57.0,56.5,29.97,North,-999,0.0,0.0,98,0.00,,,-99.99,FreeWX-Wi 1.01,2013-09-08 09:04:00,
2013-09-08 02:09:00,57.0,56.5,29.97,North,-999,0.0,0.0,98,0.00,,,-99.99,FreeWX-Wi 1.01,2013-09-08 09:09:00,
2013-09-08 02:14:00,57.0,56.5,29.97,North,-999,0.0,0.0,98,0.00,,,-99.99,FreeWX-Wi 1.01,2013-09-08 09:14:00,
2013-09-08 02:19:00,56.8,56.3,29.97,North,-999,0.0,0.0,98,0.00,,,-99.99,FreeWX-Wi 1.01,2013-09-08 09:19:00,
2013-09-08 02:24:00,56.7,56.1,29.97,North,-999,0.0,0.0,98,0.00,,,-99.99,FreeWX-Wi 1.01,2013-09-08 09:24:00,
2013-09-08 02:29:00,56.7,56.1,29.97,North,-999,0.0,0.0,98,0.00,,,-99.99,FreeWX-Wi 1.01,2013-09-08 09:29:00,
2013-09-08 02:34:00,56.5,55.9,29.97,North,-999,0.0,0.0,98,0.00,,,-99.99,FreeWX-Wi 1.01,2013-09-08 09:34:00,
2013-09-08 02:39:00,56.7,56.1,29.97,North,-999,0.0,0.0,98,0.00,,,-99.99,FreeWX-Wi 1.01,2013-09-08 09:39:00,
2013-09-08 02:44:00,56.5,55.9,29.97,North,-999,0.0,0.0,98,0.00,,,-99.99,FreeWX-Wi 1.01,2013-09-08 09:44:00,
2013-09-08 02:49:00,56.5,55.9,29.97,North,-999,0.0,0.0,98,0.00,,,-99.99,FreeWX-Wi 1.01,2013-09-08 09:49:00,
2013-09-08 02:54:00,56.5,55.9,29.97,North,-999,0.0,0.0,98,0.00,,,-99.99,FreeWX-Wi 1.01,2013-09-08 09:54:00,
2013-09-08 02:59:00,56.7,56.1,29.97,North,-999,0.0,0.0,98,0.00,,,-99.99,FreeWX-Wi 1.01,2013-09-08 09:59:00,
2013-09-08 03:04:00,56.7,56.1,29.97,North,-999,0.0,0.0,98,0.00,,,-99.99,FreeWX-Wi 1.01,2013-09-08 10:04:00,
2013-09-08 03:09:00,56.5,55.9,29.97,North,-999,0.0,0.0,98,0.00,,,-99.99,FreeWX-Wi 1.01,2013-09-08 10:09:00,
2013-09-08 03:14:00,56.5,55.9,29.97,North,-999,0.0,0.0,98,0.00,,,-99.99,FreeWX-Wi 1.01,2013-09-08 10:14:00,
2013-09-08 03:19:00,56.8,56.3,29.97,North,-999,0.0,0.0,98,0.00,,,-99.99,FreeWX-Wi 1.01,2013-09-08 10:19:00,
2013-09-08 03:24:00,56.7,56.1,29.97,North,-999,0.0,0.0,98,0.00,,,-99.99,FreeWX-Wi 1.01,2013-09-08 10:24:00,
2013-09-08 03:29:00,56.7,56.1,29.97,North,-999,0.0,0.0,98,0.00,,,-99.99,FreeWX-Wi 1.01,2013-09-08 10:29:00,
2013-09-08 03:34:00,56.5,55.9,29.97,North,-999,0.0,0.0,98,0.00,,,-99.99,FreeWX-Wi 1.01,2013-09-08 10:34:00,
2013-09-08 03:39:00,56.3,55.8,29.97,North,-999,0.0,0.0,98,0.00,,,-99.99,FreeWX-Wi 1.01,2013-09-08 10:39:00,
2013-09-08 03:44:00,56.1,55.6,29.97,North,-999,0.0,0.0,98,0.00,,,-99.99,FreeWX-Wi 1.01,2013-09-08 10:44:00,
2013-09-08 03:49:00,56.1,55.6,29.97,North,-999,0.0,0.0,98,0.00,,,-99.99,FreeWX-Wi 1.01,2013-09-08 10:49:00,
2013-09-08 03:54:00,56.1,55.6,29.97,North,-999,0.0,0.0,98,0.00,,,-99.99,FreeWX-Wi 1.01,2013-09-08 10:54:00,
2013-09-08 03:59:00,56.3,55.8,29.97,North,-999,0.0,0.0,98,0.00,,,-99.99,FreeWX-Wi 1.01,2013-09-08 10:59:00,
2013-09-08 04:04:00,56.5,55.9,29.97,North,-999,0.0,0.0,98,0.00,,,-99.99,FreeWX-Wi 1.01,2013-09-08 11:04:00,
2013-09-08 04:09:00,56.7,56.1,29.97,North,-999,0.0,0.0,98,0.00,,,-99.99,FreeWX-Wi 1.01,2013-09-08 11:09:00,
2013-09-08 04:14:00,57.0,56.5,29.97,North,-999,0.0,0.0,98,0.00,,,-99.99,FreeWX-Wi 1.01,2013-09-08 11:14:00,
2013-09-08 04:19:00,57.2,56.7,29.97,North,-999,0.0,0.0,98,0.00,,,-99.99,FreeWX-Wi 1.01,2013-09-08 11:19:00,
2013-09-08 04:24:00,57.4,56.8,29.97,North,-999,0.0,0.0,98,0.00,,,-99.99,FreeWX-Wi 1.01,2013-09-08 11:24:00,
2013-09-08 04:29:00,57.7,57.2,29.97,North,-999,0.0,0.0,98,0.00,,,-99.99,FreeWX-Wi 1.01,2013-09-08 11:29:00,
2013-09-08 04:34:00,57.9,57.4,29.97,North,-999,0.0,0.0,98,0.00,,,-99.99,FreeWX-Wi 1.01,2013-09-08 11:34:00,
2013-09-08 04:39:00,57.9,57.4,29.97,North,-999,0.0,0.0,98,0.00,,,-99.99,FreeWX-Wi 1.01,2013-09-08 11:39:00,
2013-09-08 04:44:00,57.9,57.4,29.97,North,-999,0.0,0.0,98,0.00,,,-99.99,FreeWX-Wi 1.01,2013-09-08 11:44:00,
2013-09-08 04:49:00,57.9,57.4,29.97,North,-999,0.0,0.0,98,0.00,,,-99.99,FreeWX-Wi 1.01,2013-09-08 11:49:00,
2013-09-08 04:54:00,57.9,57.4,29.97,North,-999,0.0,0.0,98,0.00,,,-99.99,FreeWX-Wi 1.01,2013-09-08 11:54:00,
2013-09-08 04:59:00,58.1,57.6,29.97,North,-999,0.0,0.0,98,0.00,,,-99.99,FreeWX-Wi 1.01,2013-09-08 11:59:00,
2013-09-08 05:05:00,58.1,57.6,29.97,North,-999,0.0,0.0,98,0.00,,,-99.99,FreeWX-Wi 1.01,2013-09-08 12:05:00,
2013-09-08 05:10:00,58.1,57.6,29.97,North,-999,0.0,0.0,98,0.00,,,-99.99,FreeWX-Wi 1.01,2013-09-08 12:10:00,
2013-09-08 05:15:00,58.3,57.7,29.97,North,-999,0.0,0.0,98,0.00,,,-99.99,FreeWX-Wi 1.01,2013-09-08 12:15:00,
2013-09-08 05:20:00,58.3,57.7,29.97,North,-999,0.0,0.0,98,0.00,,,-99.99,FreeWX-Wi 1.01,2013-09-08 12:20:00,
2013-09-08 05:25:00,58.5,57.9,29.97,North,-999,0.0,0.0,98,0.00,,,-99.99,FreeWX-Wi 1.01,2013-09-08 12:25:00,
2013-09-08 05:30:00,58.5,57.9,29.97,North,-999,0.0,0.0,98,0.00,,,-99.99,FreeWX-Wi 1.01,2013-09-08 12:30:00,
2013-09-08 05:35:00,58.5,57.9,29.97,North,-999,0.0,0.0,98,0.00,,,-99.99,FreeWX-Wi 1.01,2013-09-08 12:35:00,
2013-09-08 05:40:00,58.5,57.9,29.97,North,-999,0.0,0.0,98,0.00,,,-99.99,FreeWX-Wi 1.01,2013-09-08 12:40:00,
2013-09-08 05:45:00,58.5,57.9,29.97,North,-999,0.0,0.0,98,0.00,,,-99.99,FreeWX-Wi 1.01,2013-09-08 12:45:00,
2013-09-08 05:50:00,58.5,57.9,29.97,North,-999,0.0,0.0,98,0.00,,,-99.99,FreeWX-Wi 1.01,2013-09-08 12:50:00,
2013-09-08 05:55:00,58.5,57.9,29.97,North,-999,0.0,0.0,98,0.00,,,-99.99,FreeWX-Wi 1.01,2013-09-08 12:55:00,
2013-09-08 06:00:00,58.5,57.9,29.97,North,-999,0.0,0.0,98,0.00,,,-99.99,FreeWX-Wi 1.01,2013-09-08 13:00:00,
2013-09-08 06:05:00,58.5,57.9,30.00,North,-999,0.0,0.0,98,0.00,,,-99.99,FreeWX-Wi 1.01,2013-09-08 13:05:00,
2013-09-08 06:10:00,58.5,57.9,30.00,North,-999,0.0,0.0,98,0.00,,,-99.99,FreeWX-Wi 1.01,2013-09-08 13:10:00,
2013-09-08 06:15:00,58.6,58.1,30.00,North,-999,0.0,0.0,98,0.00,,,-99.99,FreeWX-Wi 1.01,2013-09-08 13:15:00,
2013-09-08 06:20:00,58.6,58.1,30.00,North,-999,0.0,0.0,98,0.00,,,-99.99,FreeWX-Wi 1.01,2013-09-08 13:20:00,
2013-09-08 06:25:00,58.6,58.1,30.00,North,-999,0.0,0.0,98,0.00,,,-99.99,FreeWX-Wi 1.01,2013-09-08 13:25:00,
2013-09-08 06:30:00,58.6,58.1,30.00,North,-999,0.0,0.0,98,0.00,,,-99.99,FreeWX-Wi 1.01,2013-09-08 13:30:00,
2013-09-08 06:35:00,58.6,58.1,30.00,North,-999,0.0,0.0,98,0.00,,,-99.99,FreeWX-Wi 1.01,2013-09-08 13:35:00,
2013-09-08 06:40:00,58.6,58.1,30.00,North,-999,0.0,0.0,98,0.00,,,-99.99,FreeWX-Wi 1.01,2013-09-08 13:40:00,
2013-09-08 06:45:00,58.8,58.3,30.00,North,-999,0.0,0.0,98,0.00,,,-99.99,FreeWX-Wi 1.01,2013-09-08 13:45:00,
2013-09-08 06:50:00,58.8,58.3,30.00,North,-999,0.0,0.0,98,0.00,,,-99.99,FreeWX-Wi 1.01,2013-09-08 13:50:00,
2013-09-08 06:55:00,58.8,58.3,30.00,North,-999,0.0,0.0,98,0.00,,,-99.99,FreeWX-Wi 1.01,2013-09-08 13:55:00,
2013-09-08 07:00:00,59.0,58.5,30.00,North,-999,0.0,0.0,98,0.00,,,-99.99,FreeWX-Wi 1.01,2013-09-08 14:00:00,
2013-09-08 07:05:00,59.0,58.5,30.00,North,-999,0.0,0.0,98,0.00,,,-99.99,FreeWX-Wi 1.01,2013-09-08 14:05:00,
2013-09-08 07:10:00,59.2,58.6,30.00,North,-999,0.0,0.0,98,0.00,,,-99.99,FreeWX-Wi 1.01,2013-09-08 14:10:00,
2013-09-08 07:15:00,59.2,58.6,30.00,North,-999,0.0,0.0,98,0.00,,,-99.99,FreeWX-Wi 1.01,2013-09-08 14:15:00,
2013-09-08 07:20:00,59.2,58.6,30.00,North,-999,0.0,0.0,98,0.00,,,-99.99,FreeWX-Wi 1.01,2013-09-08 14:20:00,
2013-09-08 07:25:00,59.2,58.6,30.00,North,-999,0.0,0.0,98,0.00,,,-99.99,FreeWX-Wi 1.01,2013-09-08 14:25:00,
2013-09-08 07:30:00,59.4,58.8,30.00,North,-999,0.0,0.0,98,0.00,,,-99.99,FreeWX-Wi 1.01,2013-09-08 14:30:00,
2013-09-08 07:35:00,59.4,58.8,30.00,North,-999,0.0,3.1,98,0.00,,,-99.99,FreeWX-Wi 1.01,2013-09-08 14:35:00,
2013-09-08 07:40:00,59.4,58.8,30.00,North,-999,0.0,0.0,98,0.00,,,-99.99,FreeWX-Wi 1.01,2013-09-08 14:40:00,
2013-09-08 07:45:00,59.4,58.8,30.00,North,-999,0.0,0.0,98,0.00,,,-99.99,FreeWX-Wi 1.01,2013-09-08 14:45:00,
2013-09-08 07:50:00,59.4,58.8,30.00,North,-999,0.0,0.0,98,0.00,,,-99.99,FreeWX-Wi 1.01,2013-09-08 14:50:00,
2013-09-08 07:55:00,59.5,59.0,30.00,North,-999,0.0,2.7,98,0.00,,,-99.99,FreeWX-Wi 1.01,2013-09-08 14:55:00,
2013-09-08 08:00:00,59.5,59.0,30.00,North,-999,0.0,2.2,98,0.00,,,-99.99,FreeWX-Wi 1.01,2013-09-08 15:00:00,
2013-09-08 08:05:00,59.5,59.0,30.00,North,-999,0.0,0.0,98,0.00,,,-99.99,FreeWX-Wi 1.01,2013-09-08 15:05:00,
2013-09-08 08:10:00,59.7,59.2,30.00,North,-999,0.0,0.0,98,0.00,,,-99.99,FreeWX-Wi 1.01,2013-09-08 15:10:00,
2013-09-08 08:15:00,59.7,59.2,30.00,North,-999,0.0,0.0,98,0.00,,,-99.99,FreeWX-Wi 1.01,2013-09-08 15:15:00,
2013-09-08 08:20:00,59.9,59.4,30.00,North,-999,0.0,0.0,98,0.00,,,-99.99,FreeWX-Wi 1.01,2013-09-08 15:20:00,
2013-09-08 08:25:00,59.7,59.2,30.00,North,-999,0.0,0.0,98,0.00,,,-99.99,FreeWX-Wi 1.01,2013-09-08 15:25:00,
2013-09-08 08:30:00,59.7,59.2,30.00,North,-999,0.0,2.2,98,0.00,,,-99.99,FreeWX-Wi 1.01,2013-09-08 15:30:00,
2013-09-08 08:35:00,59.7,59.2,30.00,North,-999,0.0,0.0,98,0.00,,,-99.99,FreeWX-Wi 1.01,2013-09-08 15:35:00,
2013-09-08 08:40:00,59.7,59.2,30.00,North,-999,0.0,2.7,98,0.00,,,-99.99,FreeWX-Wi 1.01,2013-09-08 15:40:00,
2013-09-08 08:45:00,59.9,59.4,30.00,North,-999,0.0,0.0,98,0.00,,,-99.99,FreeWX-Wi 1.01,2013-09-08 15:45:00,
2013-09-08 08:50:00,60.1,59.5,30.00,North,-999,0.0,0.0,98,0.00,,,-99.99,FreeWX-Wi 1.01,2013-09-08 15:50:00,
2013-09-08 08:55:00,60.1,59.5,30.00,North,-999,0.0,0.0,98,0.00,,,-99.99,FreeWX-Wi 1.01,2013-09-08 15:55:00,
2013-09-08 09:00:00,60.3,59.7,30.00,North,-999,0.0,0.0,98,0.00,,,-99.99,FreeWX-Wi 1.01,2013-09-08 16:00:00,
2013-09-08 09:05:00,60.4,59.9,30.00,North,-999,0.0,0.0,98,0.00,,,-99.99,FreeWX-Wi 1.01,2013-09-08 16:05:00,
2013-09-08 09:10:00,60.6,60.1,30.00,North,-999,0.0,0.0,98,0.00,,,-99.99,FreeWX-Wi 1.01,2013-09-08 16:10:00,
2013-09-08 09:15:00,61.0,60.4,30.00,North,-999,0.0,0.0,98,0.00,,,-99.99,FreeWX-Wi 1.01,2013-09-08 16:15:00,
2013-09-08 09:20:00,61.2,60.6,30.00,North,-999,0.0,0.0,98,0.00,,,-99.99,FreeWX-Wi 1.01,2013-09-08 16:20:00,
2013-09-08 09:25:00,61.3,60.8,30.00,North,-999,0.0,0.0,98,0.00,,,-99.99,FreeWX-Wi 1.01,2013-09-08 16:25:00,
2013-09-08 09:30:00,61.3,60.8,30.00,North,-999,0.0,0.0,98,0.00,,,-99.99,FreeWX-Wi 1.01,2013-09-08 16:30:00,
2013-09-08 09:35:00,61.7,61.2,30.00,North,-999,0.0,0.0,98,0.00,,,-99.99,FreeWX-Wi 1.01,2013-09-08 16:35:00,
2013-09-08 09:40:00,61.9,61.3,30.00,North,-999,0.0,0.0,98,0.00,,,-99.99,FreeWX-Wi 1.01,2013-09-08 16:40:00,
2013-09-08 09:45:00,61.9,61.3,30.00,North,-999,0.0,0.0,98,0.00,,,-99.99,FreeWX-Wi 1.01,2013-09-08 16:45:00,
2013-09-08 09:50:00,61.7,61.2,30.00,North,-999,0.0,2.7,98,0.00,,,-99.99,FreeWX-Wi 1.01,2013-09-08 16:50:00,
2013-09-08 09:55:00,61.9,61.3,30.00,North,-999,0.0,0.0,98,0.00,,,-99.99,FreeWX-Wi 1.01,2013-09-08 16:55:00,
2013-09-08 10:00:00,62.1,61.5,30.00,North,-999,0.0,0.0,98,0.00,,,-99.99,FreeWX-Wi 1.01,2013-09-08 17:00:00,
2013-09-08 10:05:00,62.2,61.7,30.00,North,-999,0.0,0.0,98,0.00,,,-99.99,FreeWX-Wi 1.01,2013-09-08 17:05:00,
2013-09-08 10:10:00,62.6,62.1,30.00,North,-999,0.0,0.0,98,0.00,,,-99.99,FreeWX-Wi 1.01,2013-09-08 17:10:00,
2013-09-08 10:15:00,62.8,62.2,30.00,North,-999,0.0,0.0,98,0.00,,,-99.99,FreeWX-Wi 1.01,2013-09-08 17:15:00,
2013-09-08 10:20:00,62.8,62.2,30.00,North,-999,0.0,2.7,98,0.00,,,-99.99,FreeWX-Wi 1.01,2013-09-08 17:20:00,
2013-09-08 10:25:00,63.0,62.4,30.00,North,-999,0.0,0.0,98,0.00,,,-99.99,FreeWX-Wi 1.01,2013-09-08 17:25:00,
2013-09-08 10:30:00,63.3,62.8,30.00,North,-999,0.0,0.0,98,0.00,,,-99.99,FreeWX-Wi 1.01,2013-09-08 17:30:00,
2013-09-08 10:35:00,63.7,63.1,30.00,North,-999,0.0,0.0,98,0.00,,,-99.99,FreeWX-Wi 1.01,2013-09-08 17:35:00,
2013-09-08 10:40:00,63.9,63.3,30.00,North,-999,0.0,4.0,98,0.00,,,-99.99,FreeWX-Wi 1.01,2013-09-08 17:40:00,
2013-09-08 10:46:00,64.0,63.5,30.00,North,-999,0.0,0.0,98,0.00,,,-99.99,FreeWX-Wi 1.01,2013-09-08 17:46:00,
2013-09-08 10:51:00,64.2,63.7,30.03,North,-999,0.0,0.0,98,0.00,,,-99.99,FreeWX-Wi 1.01,2013-09-08 17:51:00,
2013-09-08 10:56:00,64.4,62.6,30.03,North,-999,0.0,3.1,94,0.00,,,-99.99,FreeWX-Wi 1.01,2013-09-08 17:56:00,
2013-09-08 11:01:00,64.4,62.2,30.03,North,-999,0.0,3.6,93,0.00,,,-99.99,FreeWX-Wi 1.01,2013-09-08 18:01:00,
2013-09-08 11:06:00,64.6,62.2,30.00,North,-999,0.0,4.0,92,0.00,,,-99.99,FreeWX-Wi 1.01,2013-09-08 18:06:00,
2013-09-08 11:11:00,64.8,62.1,30.00,North,-999,0.0,4.0,91,0.00,,,-99.99,FreeWX-Wi 1.01,2013-09-08 18:11:00,
2013-09-08 11:16:00,65.1,62.1,30.00,North,-999,0.0,2.2,90,0.00,,,-99.99,FreeWX-Wi 1.01,2013-09-08 18:16:00,
2013-09-08 11:21:00,65.5,62.4,30.00,North,-999,0.0,3.1,90,0.00,,,-99.99,FreeWX-Wi 1.01,2013-09-08 18:21:00,
2013-09-08 11:26:00,65.8,62.8,30.00,North,-999,0.0,0.0,90,0.00,,,-99.99,FreeWX-Wi 1.01,2013-09-08 18:26:00,
2013-09-08 11:31:00,66.2,62.6,30.00,North,-999,0.0,2.2,88,0.00,,,-99.99,FreeWX-Wi 1.01,2013-09-08 18:31:00,
2013-09-08 11:36:00,67.1,63.1,30.00,North,-999,0.0,0.0,87,0.00,,,-99.99,FreeWX-Wi 1.01,2013-09-08 18:36:00,
2013-09-08 11:41:00,67.3,61.5,30.00,North,-999,0.0,3.1,82,0.00,,,-99.99,FreeWX-Wi 1.01,2013-09-08 18:41:00,
2013-09-08 11:46:00,67.3,61.5,30.00,North,-999,0.0,3.6,82,0.00,,,-99.99,FreeWX-Wi 1.01,2013-09-08 18:46:00,
2013-09-08 11:51:00,68.0,61.5,30.00,North,-999,0.0,3.1,80,0.00,,,-99.99,FreeWX-Wi 1.01,2013-09-08 18:51:00,
2013-09-08 11:56:00,69.1,62.6,30.00,North,-999,0.0,2.2,80,0.00,,,-99.99,FreeWX-Wi 1.01,2013-09-08 18:56:00,
2013-09-08 12:01:00,70.3,62.8,30.00,North,-999,0.0,0.0,77,0.00,,,-99.99,FreeWX-Wi 1.01,2013-09-08 19:01:00,
2013-09-08 12:06:00,70.9,61.3,30.00,North,-999,0.0,3.1,72,0.00,,,-99.99,FreeWX-Wi 1.01,2013-09-08 19:06:00,
2013-09-08 12:11:00,71.6,61.7,30.00,North,-999,0.0,2.2,71,0.00,,,-99.99,FreeWX-Wi 1.01,2013-09-08 19:11:00,
2013-09-08 12:16:00,71.8,61.0,30.00,North,-999,0.0,0.0,69,0.00,,,-99.99,FreeWX-Wi 1.01,2013-09-08 19:16:00,
2013-09-08 12:21:00,72.1,61.0,30.00,North,-999,0.0,2.7,68,0.00,,,-99.99,FreeWX-Wi 1.01,2013-09-08 19:21:00,
2013-09-08 12:26:00,72.9,61.7,30.00,North,-999,0.0,3.6,68,0.00,,,-99.99,FreeWX-Wi 1.01,2013-09-08 19:26:00,
2013-09-08 12:31:00,73.6,61.5,30.00,North,-999,0.0,3.6,66,0.00,,,-99.99,FreeWX-Wi 1.01,2013-09-08 19:31:00,
2013-09-08 12:36:00,74.3,60.8,30.00,North,-999,0.0,2.2,63,0.00,,,-99.99,FreeWX-Wi 1.01,2013-09-08 19:36:00,
2013-09-08 12:41:00,75.0,59.7,30.00,North,-999,0.0,4.9,59,0.00,,,-99.99,FreeWX-Wi 1.01,2013-09-08 19:41:00,
2013-09-08 12:46:00,75.6,59.2,30.00,North,-999,0.0,2.2,57,0.00,,,-99.99,FreeWX-Wi 1.01,2013-09-08 19:46:00,
2013-09-08 12:51:00,76.1,60.3,30.00,North,-999,0.0,2.2,58,0.00,,,-99.99,FreeWX-Wi 1.01,2013-09-08 19:51:00,
2013-09-08 12:56:00,76.5,60.1,30.00,North,-999,0.0,3.1,57,0.00,,,-99.99,FreeWX-Wi 1.01,2013-09-08 19:56:00,
2013-09-08 13:01:00,76.6,60.8,30.00,North,-999,0.0,2.2,58,0.00,,,-99.99,FreeWX-Wi 1.01,2013-09-08 20:01:00,
2013-09-08 13:06:00,77.0,60.1,30.00,North,-999,0.0,0.0,56,0.00,,,-99.99,FreeWX-Wi 1.01,2013-09-08 20:06:00,
2013-09-08 14:23:00,77.9,55.4,29.97,ENE,74,1.0,3.6,46,0.00,,,-99.99,FreeWX-Wi 1.01,2013-09-08 21:23:00,
2013-09-08 14:28:00,78.3,56.3,29.97,ENE,63,1.0,4.0,47,0.00,,,-99.99,FreeWX-Wi 1.01,2013-09-08 21:28:00,
2013-09-08 14:33:00,79.2,56.7,29.97,ENE,62,1.0,4.0,46,0.00,,,-99.99,FreeWX-Wi 1.01,2013-09-08 21:33:00,
2013-09-08 14:38:00,79.2,55.9,29.97,ENE,63,1.0,4.9,45,0.00,,,-99.99,FreeWX-Wi 1.01,2013-09-08 21:38:00,
2013-09-08 14:43:00,79.7,56.5,29.97,NE,56,1.0,2.7,45,0.00,,,-99.99,FreeWX-Wi 1.01,2013-09-08 21:43:00,
2013-09-08 14:48:00,79.9,56.7,29.97,NE,53,1.0,4.0,45,0.00,,,-99.99,FreeWX-Wi 1.01,2013-09-08 21:48:00,
2013-09-08 14:53:00,80.4,57.0,29.97,ENE,59,1.0,2.7,45,0.00,,,-99.99,FreeWX-Wi 1.01,2013-09-08 21:53:00,
2013-09-08 14:58:00,80.6,55.9,29.97,East,89,1.0,4.0,43,0.00,,,-99.99,FreeWX-Wi 1.01,2013-09-08 21:58:00,
2013-09-08 15:03:00,81.0,56.3,29.97,SE,146,1.0,3.1,43,0.00,,,-99.99,FreeWX-Wi 1.01,2013-09-08 22:03:00,
2013-09-08 15:08:00,81.1,56.5,29.97,South,190,1.0,3.6,43,0.00,,,-99.99,FreeWX-Wi 1.01,2013-09-08 22:08:00,
2013-09-08 15:13:00,80.4,56.5,29.97,SSW,196,1.0,4.0,44,0.00,,,-99.99,FreeWX-Wi 1.01,2013-09-08 22:13:00,
2013-09-08 15:18:00,80.1,57.4,29.97,SSW,211,1.0,4.0,46,0.00,,,-99.99,FreeWX-Wi 1.01,2013-09-08 22:18:00,
2013-09-08 15:23:00,80.4,57.0,29.97,SSW,208,1.0,3.6,45,0.00,,,-99.99,FreeWX-Wi 1.01,2013-09-08 22:23:00,
2013-09-08 15:28:00,80.2,57.0,29.97,SW,225,1.0,3.6,45,0.00,,,-99.99,FreeWX-Wi 1.01,2013-09-08 22:28:00,
2013-09-08 15:33:00,79.3,56.1,29.97,SW,229,1.0,4.9,45,0.00,,,-99.99,FreeWX-Wi 1.01,2013-09-08 22:33:00,
2013-09-08 15:38:00,79.2,56.7,29.97,SSW,196,1.0,4.0,46,0.00,,,-99.99,FreeWX-Wi 1.01,2013-09-08 22:38:00,
2013-09-08 15:44:00,79.5,56.3,29.97,SSW,203,1.0,5.8,45,0.00,,,-99.99,FreeWX-Wi 1.01,2013-09-08 22:44:00,
2013-09-08 15:49:00,79.9,55.9,29.97,SSW,196,2.0,6.3,44,0.00,,,-99.99,FreeWX-Wi 1.01,2013-09-08 22:49:00,
2013-09-08 15:54:00,79.5,55.6,29.97,SSW,199,2.0,4.0,44,0.00,,,-99.99,FreeWX-Wi 1.01,2013-09-08 22:54:00,
2013-09-08 15:59:00,79.5,55.6,29.97,South,190,2.0,4.9,44,0.00,,,-99.99,FreeWX-Wi 1.01,2013-09-08 22:59:00,
2013-09-08 16:04:00,79.3,55.6,29.97,SSW,192,2.0,5.8,44,0.00,,,-99.99,FreeWX-Wi 1.01,2013-09-08 23:04:00,
2013-09-08 16:09:00,79.2,56.7,29.97,SSW,202,2.0,4.0,46,0.00,,,-99.99,FreeWX-Wi 1.01,2013-09-08 23:09:00,
2013-09-08 16:14:00,78.6,56.1,29.97,SSW,203,2.0,6.3,46,0.00,,,-99.99,FreeWX-Wi 1.01,2013-09-08 23:14:00,
2013-09-08 16:19:00,78.6,56.1,29.94,SSW,207,2.0,4.0,46,0.00,,,-99.99,FreeWX-Wi 1.01,2013-09-08 23:19:00,
2013-09-08 16:24:00,78.4,55.4,29.94,SSW,205,2.0,4.0,45,0.00,,,-99.99,FreeWX-Wi 1.01,2013-09-08 23:24:00,
2013-09-08 16:29:00,78.4,55.9,29.94,SSW,208,2.0,4.0,46,0.00,,,-99.99,FreeWX-Wi 1.01,2013-09-08 23:29:00,
2013-09-08 16:34:00,77.5,55.8,29.94,SSW,201,2.0,8.3,47,0.00,,,-99.99,FreeWX-Wi 1.01,2013-09-08 23:34:00,
2013-09-08 16:39:00,76.8,56.1,29.94,SSW,199,2.0,6.3,49,0.00,,,-99.99,FreeWX-Wi 1.01,2013-09-08 23:39:00,
2013-09-08 16:44:00,76.5,55.9,29.94,SSW,197,2.0,3.1,49,0.00,,,-99.99,FreeWX-Wi 1.01,2013-09-08 23:44:00,
2013-09-08 16:49:00,75.9,55.9,29.94,SSW,195,2.0,3.1,50,0.00,,,-99.99,FreeWX-Wi 1.01,2013-09-08 23:49:00,
2013-09-08 16:54:00,75.6,56.7,29.94,SSW,194,2.0,2.2,52,0.00,,,-99.99,FreeWX-Wi 1.01,2013-09-08 23:54:00,
2013-09-08 16:59:00,75.2,56.3,29.94,SSW,200,1.0,3.6,52,0.00,,,-99.99,FreeWX-Wi 1.01,2013-09-08 23:59:00,
2013-09-08 17:04:00,74.8,56.5,29.94,SSW,200,1.0,3.6,53,0.00,,,-99.99,FreeWX-Wi 1.01,2013-09-09 00:04:00,
2013-09-08 17:09:00,74.3,57.0,29.94,SSW,192,1.0,2.2,55,0.00,,,-99.99,FreeWX-Wi 1.01,2013-09-09 00:09:00,
2013-09-08 17:14:00,74.1,56.8,29.94,SSE,167,1.0,2.2,55,0.00,,,-99.99,FreeWX-Wi 1.01,2013-09-09 00:14:00,
2013-09-08 17:19:00,73.9,56.7,29.94,North,-999,0.0,2.2,55,0.00,,,-99.99,FreeWX-Wi 1.01,2013-09-09 00:19:00,
2013-09-08 17:24:00,73.9,57.2,29.94,North,-999,0.0,2.7,56,0.00,,,-99.99,FreeWX-Wi 1.01,2013-09-09 00:24:00,
2013-09-08 17:29:00,73.8,57.0,29.94,North,-999,0.0,0.0,56,0.00,,,-99.99,FreeWX-Wi 1.01,2013-09-09 00:29:00,
2013-09-08 17:34:00,73.6,56.8,29.94,North,-999,0.0,2.2,56,0.00,,,-99.99,FreeWX-Wi 1.01,2013-09-09 00:34:00,
2013-09-08 17:39:00,73.2,57.0,29.94,North,-999,0.0,3.6,57,0.00,,,-99.99,FreeWX-Wi 1.01,2013-09-09 00:39:00,
2013-09-08 17:44:00,73.0,56.8,29.94,North,-999,0.0,2.2,57,0.00,,,-99.99,FreeWX-Wi 1.01,2013-09-09 00:44:00,
2013-09-08 17:49:00,73.0,56.5,29.94,North,-999,0.0,3.6,56,0.00,,,-99.99,FreeWX-Wi 1.01,2013-09-09 00:49:00,
2013-09-08 17:54:00,73.0,56.5,29.94,North,-999,0.0,2.2,56,0.00,,,-99.99,FreeWX-Wi 1.01,2013-09-09 00:54:00,
2013-09-08 17:59:00,72.9,56.7,29.94,North,-999,0.0,0.0,57,0.00,,,-99.99,FreeWX-Wi 1.01,2013-09-09 00:59:00,
2013-09-08 18:04:00,72.7,56.5,29.94,North,-999,0.0,0.0,57,0.00,,,-99.99,FreeWX-Wi 1.01,2013-09-09 01:04:00,
2013-09-08 18:09:00,72.7,56.5,29.94,North,-999,0.0,0.0,57,0.00,,,-99.99,FreeWX-Wi 1.01,2013-09-09 01:09:00,
2013-09-08 18:14:00,72.5,56.3,29.94,North,-999,0.0,0.0,57,0.00,,,-99.99,FreeWX-Wi 1.01,2013-09-09 01:14:00,
2013-09-08 18:19:00,72.3,56.3,29.94,North,-999,0.0,2.2,57,0.00,,,-99.99,FreeWX-Wi 1.01,2013-09-09 01:19:00,
2013-09-08 18:24:00,72.1,56.1,29.94,North,-999,0.0,0.0,57,0.00,,,-99.99,FreeWX-Wi 1.01,2013-09-09 01:24:00,
2013-09-08 18:29:00,72.0,55.9,29.94,North,-999,0.0,0.0,57,0.00,,,-99.99,FreeWX-Wi 1.01,2013-09-09 01:29:00,
2013-09-08 18:34:00,71.8,55.8,29.94,North,-999,0.0,0.0,57,0.00,,,-99.99,FreeWX-Wi 1.01,2013-09-09 01:34:00,
2013-09-08 18:39:00,71.4,55.9,29.94,North,-999,0.0,0.0,58,0.00,,,-99.99,FreeWX-Wi 1.01,2013-09-09 01:39:00,
2013-09-08 18:44:00,71.2,55.8,29.94,North,-999,0.0,0.0,58,0.00,,,-99.99,FreeWX-Wi 1.01,2013-09-09 01:44:00,
2013-09-08 18:49:00,71.1,55.9,29.94,North,-999,0.0,0.0,59,0.00,,,-99.99,FreeWX-Wi 1.01,2013-09-09 01:49:00,
2013-09-08 18:54:00,70.7,55.6,29.94,North,-999,0.0,0.0,59,0.00,,,-99.99,FreeWX-Wi 1.01,2013-09-09 01:54:00,
2013-09-08 18:59:00,70.3,55.4,29.94,North,-999,0.0,0.0,59,0.00,,,-99.99,FreeWX-Wi 1.01,2013-09-09 01:59:00,
2013-09-08 19:04:00,70.0,55.4,29.94,North,-999,0.0,0.0,60,0.00,,,-99.99,FreeWX-Wi 1.01,2013-09-09 02:04:00,
2013-09-08 19:09:00,69.6,55.6,29.94,North,-999,0.0,0.0,61,0.00,,,-99.99,FreeWX-Wi 1.01,2013-09-09 02:09:00,
2013-09-08 19:14:00,69.3,55.8,29.94,North,-999,0.0,0.0,62,0.00,,,-99.99,FreeWX-Wi 1.01,2013-09-09 02:14:00,
2013-09-08 19:19:00,68.9,55.8,29.91,North,-999,0.0,0.0,63,0.00,,,-99.99,FreeWX-Wi 1.01,2013-09-09 02:19:00,
2013-09-08 19:24:00,68.5,55.4,29.91,North,-999,0.0,0.0,63,0.00,,,-99.99,FreeWX-Wi 1.01,2013-09-09 02:24:00,
2013-09-08 19:29:00,68.2,55.6,29.91,North,-999,0.0,0.0,64,0.00,,,-99.99,FreeWX-Wi 1.01,2013-09-09 02:29:00,
2013-09-08 19:34:00,68.0,55.8,29.94,North,-999,0.0,0.0,65,0.00,,,-99.99,FreeWX-Wi 1.01,2013-09-09 02:34:00,
2013-09-08 19:39:00,67.6,55.9,29.94,North,-999,0.0,0.0,66,0.00,,,-99.99,FreeWX-Wi 1.01,2013-09-09 02:39:00,
2013-09-08 19:44:00,67.3,55.6,29.94,North,-999,0.0,0.0,66,0.00,,,-99.99,FreeWX-Wi 1.01,2013-09-09 02:44:00,
2013-09-08 19:49:00,66.9,55.6,29.94,North,-999,0.0,0.0,67,0.00,,,-99.99,FreeWX-Wi 1.01,2013-09-09 02:49:00,
2013-09-08 19:54:00,66.7,55.4,29.94,North,-999,0.0,0.0,67,0.00,,,-99.99,FreeWX-Wi 1.01,2013-09-09 02:54:00,
2013-09-08 19:59:00,66.4,55.4,29.94,North,-999,0.0,0.0,68,0.00,,,-99.99,FreeWX-Wi 1.01,2013-09-09 02:59:00,
2013-09-08 20:04:00,66.2,55.8,29.94,North,-999,0.0,0.0,69,0.00,,,-99.99,FreeWX-Wi 1.01,2013-09-09 03:04:00,
2013-09-08 20:09:00,66.0,55.9,29.94,North,-999,0.0,0.0,70,0.00,,,-99.99,FreeWX-Wi 1.01,2013-09-09 03:09:00,
2013-09-08 20:14:00,65.8,55.8,29.94,North,-999,0.0,0.0,70,0.00,,,-99.99,FreeWX-Wi 1.01,2013-09-09 03:14:00,
2013-09-08 20:19:00,65.5,55.8,29.94,North,-999,0.0,0.0,71,0.00,,,-99.99,FreeWX-Wi 1.01,2013-09-09 03:19:00,
2013-09-08 20:24:00,65.3,55.6,29.94,North,-999,0.0,0.0,71,0.00,,,-99.99,FreeWX-Wi 1.01,2013-09-09 03:24:00,
2013-09-08 20:29:00,65.1,55.9,29.94,North,-999,0.0,0.0,72,0.00,,,-99.99,FreeWX-Wi 1.01,2013-09-09 03:29:00,
2013-09-08 20:34:00,64.9,55.8,29.94,North,-999,0.0,0.0,72,0.00,,,-99.99,FreeWX-Wi 1.01,2013-09-09 03:34:00,
2013-09-08 20:39:00,64.8,55.9,29.94,North,-999,0.0,0.0,73,0.00,,,-99.99,FreeWX-Wi 1.01,2013-09-09 03:39:00,
2013-09-08 20:44:00,64.8,55.9,29.94,North,-999,0.0,0.0,73,0.00,,,-99.99,FreeWX-Wi 1.01,2013-09-09 03:44:00,
2013-09-08 20:49:00,64.6,56.1,29.94,North,-999,0.0,0.0,74,0.00,,,-99.99,FreeWX-Wi 1.01,2013-09-09 03:49:00,
2013-09-08 20:54:00,64.4,55.9,29.94,North,-999,0.0,0.0,74,0.00,,,-99.99,FreeWX-Wi 1.01,2013-09-09 03:54:00,
2013-09-08 20:59:00,64.2,56.1,29.94,North,-999,0.0,0.0,75,0.00,,,-99.99,FreeWX-Wi 1.01,2013-09-09 03:59:00,
2013-09-08 21:04:00,64.2,56.5,29.94,North,-999,0.0,0.0,76,0.00,,,-99.99,FreeWX-Wi 1.01,2013-09-09 04:04:00,
2013-09-08 21:09:00,64.0,56.3,29.94,North,-999,0.0,0.0,76,0.00,,,-99.99,FreeWX-Wi 1.01,2013-09-09 04:09:00,
2013-09-08 21:14:00,64.2,56.8,29.94,North,-999,0.0,0.0,77,0.00,,,-99.99,FreeWX-Wi 1.01,2013-09-09 04:14:00,
2013-09-08 21:19:00,64.2,57.2,29.94,North,-999,0.0,0.0,78,0.00,,,-99.99,FreeWX-Wi 1.01,2013-09-09 04:19:00,
2013-09-08 21:24:00,64.2,57.6,29.94,North,-999,0.0,0.0,79,0.00,,,-99.99,FreeWX-Wi 1.01,2013-09-09 04:24:00,
2013-09-08 21:29:00,64.0,57.7,29.94,North,-999,0.0,0.0,80,0.00,,,-99.99,FreeWX-Wi 1.01,2013-09-09 04:29:00,
2013-09-08 21:34:00,64.0,58.1,29.94,North,-999,0.0,0.0,81,0.00,,,-99.99,FreeWX-Wi 1.01,2013-09-09 04:34:00,
2013-09-08 21:39:00,64.4,58.8,29.94,North,-999,0.0,0.0,82,0.00,,,-99.99,FreeWX-Wi 1.01,2013-09-09 04:39:00,
2013-09-08 21:44:00,64.2,58.6,29.94,North,-999,0.0,0.0,82,0.00,,,-99.99,FreeWX-Wi 1.01,2013-09-09 04:44:00,
2013-09-08 21:49:00,64.0,58.8,29.94,North,-999,0.0,0.0,83,0.00,,,-99.99,FreeWX-Wi 1.01,2013-09-09 04:49:00,
2013-09-08 21:54:00,63.7,58.5,29.94,North,-999,0.0,0.0,83,0.00,,,-99.99,FreeWX-Wi 1.01,2013-09-09 04:54:00,
2013-09-08 21:59:00,63.5,58.3,29.94,North,-999,0.0,0.0,83,0.00,,,-99.99,FreeWX-Wi 1.01,2013-09-09 04:59:00,
2013-09-08 22:04:00,63.3,58.1,29.91,North,-999,0.0,0.0,83,0.00,,,-99.99,FreeWX-Wi 1.01,2013-09-09 05:04:00,
2013-09-08 22:09:00,63.1,58.3,29.91,North,-999,0.0,0.0,84,0.00,,,-99.99,FreeWX-Wi 1.01,2013-09-09 05:09:00,
2013-09-08 22:14:00,63.0,58.1,29.91,North,-999,0.0,0.0,84,0.00,,,-99.99,FreeWX-Wi 1.01,2013-09-09 05:14:00,
2013-09-08 22:20:00,62.8,58.3,29.94,North,-999,0.0,0.0,85,0.00,,,-99.99,FreeWX-Wi 1.01,2013-09-09 05:20:00,
2013-09-08 22:25:00,62.6,58.1,29.94,North,-999,0.0,0.0,85,0.00,,,-99.99,FreeWX-Wi 1.01,2013-09-09 05:25:00,
2013-09-08 22:30:00,62.2,57.9,29.94,North,-999,0.0,0.0,86,0.00,,,-99.99,FreeWX-Wi 1.01,2013-09-09 05:30:00,
2013-09-08 22:35:00,62.1,57.7,29.94,North,-999,0.0,0.0,86,0.00,,,-99.99,FreeWX-Wi 1.01,2013-09-09 05:35:00,
2013-09-08 22:40:00,61.9,57.9,29.94,North,-999,0.0,0.0,87,0.00,,,-99.99,FreeWX-Wi 1.01,2013-09-09 05:40:00,
2013-09-08 22:45:00,61.7,57.7,29.94,North,-999,0.0,0.0,87,0.00,,,-99.99,FreeWX-Wi 1.01,2013-09-09 05:45:00,
2013-09-08 22:50:00,61.7,58.1,29.94,North,-999,0.0,0.0,88,0.00,,,-99.99,FreeWX-Wi 1.01,2013-09-09 05:50:00,
2013-09-08 22:55:00,61.5,57.9,29.94,North,-999,0.0,0.0,88,0.00,,,-99.99,FreeWX-Wi 1.01,2013-09-09 05:55:00,
2013-09-08 23:00:00,61.3,57.7,29.94,North,-999,0.0,0.0,88,0.00,,,-99.99,FreeWX-Wi 1.01,2013-09-09 06:00:00,
2013-09-08 23:05:00,61.3,58.1,29.94,North,-999,0.0,0.0,89,0.00,,,-99.99,FreeWX-Wi 1.01,2013-09-09 06:05:00,
2013-09-08 23:10:00,61.2,57.9,29.94,North,-999,0.0,0.0,89,0.00,,,-99.99,FreeWX-Wi 1.01,2013-09-09 06:10:00,
2013-09-08 23:15:00,61.2,57.9,29.94,North,-999,0.0,0.0,89,0.00,,,-99.99,FreeWX-Wi 1.01,2013-09-09 06:15:00,
2013-09-08 23:20:00,61.0,57.7,29.94,North,-999,0.0,0.0,89,0.00,,,-99.99,FreeWX-Wi 1.01,2013-09-09 06:20:00,
2013-09-08 23:25:00,61.0,58.1,29.94,North,-999,0.0,0.0,90,0.00,,,-99.99,FreeWX-Wi 1.01,2013-09-09 06:25:00,
2013-09-08 23:30:00,61.0,58.1,29.94,North,-999,0.0,0.0,90,0.00,,,-99.99,FreeWX-Wi 1.01,2013-09-09 06:30:00,
2013-09-08 23:35:00,61.0,58.3,29.94,North,-999,0.0,0.0,91,0.00,,,-99.99,FreeWX-Wi 1.01,2013-09-09 06:35:00,
2013-09-08 23:40:00,61.2,58.5,29.94,North,-999,0.0,0.0,91,0.00,,,-99.99,FreeWX-Wi 1.01,2013-09-09 06:40:00,
2013-09-08 23:45:00,61.5,59.5,29.94,North,-999,0.0,0.0,93,0.00,,,-99.99,FreeWX-Wi 1.01,2013-09-09 06:45:00,
2013-09-08 23:50:00,61.7,60.3,29.94,North,-999,0.0,0.0,95,0.00,,,-99.99,FreeWX-Wi 1.01,2013-09-09 06:50:00,
2013-09-08 23:55:00,61.7,60.3,29.94,North,-999,0.0,0.0,95,0.00,,,-99.99,FreeWX-Wi 1.01,2013-09-09 06:55:00,